Terminal Aerodrome Forecast
Issued by NWS Charleston, WV

Current Version | Previous Version | Text Only | Print | Product List | Glossary Off
Versions: 1 2 3 4 5 6 7 8 9 10 11 12 13 14 15 16 17 18 19 20 21 22 23

106
FTUS41 KRLX 150234 AAA
TAFEKN
TAF AMD
KEKN 150234Z 1503/1524 34004KT 2SM -DZ BR OVC004
     FM151200 36004KT 4SM BR OVC008
     FM151300 01005KT P6SM OVC025
     FM151500 02005KT P6SM BKN035
     FM151700 05005KT P6SM BKN050
     FM151900 05005KT P6SM SCT080=

USA.gov is the U.S. government's official web portal to all federal, state and local government web resources and services.